createdAt,value
2022-10-16T00:01:28.207Z,61.83
2022-10-16T00:03:58.236Z,46.83
2022-10-16T00:06:27.384Z,61.43
2022-10-16T00:08:55.587Z,57.93
2022-10-16T00:11:26.088Z,50.27
2022-10-16T00:13:58.094Z,73.13
2022-10-16T00:16:26.736Z,58.23
2022-10-16T00:18:55.176Z,26.57
2022-10-16T00:21:25.380Z,72.10
2022-10-16T00:23:54.847Z,56.80
2022-10-16T00:26:23.385Z,53.37
2022-10-16T00:28:52.916Z,51.43
2022-10-16T00:31:24.323Z,65.70
2022-10-16T00:33:52.856Z,43.90
2022-10-16T00:36:24.608Z,38.20
2022-10-16T00:38:55.628Z,50.17
2022-10-16T00:41:26.668Z,28.43
2022-10-16T00:43:56.736Z,35.60
2022-10-16T00:46:29.564Z,43.53
2022-10-16T00:49:02.573Z,54.43
2022-10-16T00:51:34.659Z,38.97
2022-10-16T00:54:04.271Z,39.13
2022-10-16T00:56:34.915Z,37.53
2022-10-16T00:59:07.045Z,77.60
2022-10-16T01:01:36.873Z,36.70
2022-10-16T01:04:05.412Z,52.93
2022-10-16T01:06:43.366Z,19.17
2022-10-16T01:09:20.686Z,21.23
2022-10-16T01:12:00.526Z,15.83
2022-10-16T01:14:42.425Z,17.37
2022-10-16T01:17:17.236Z,12.83
2022-10-16T01:20:03.322Z,11.53
2022-10-16T01:22:42.212Z,19.60
2022-10-16T01:25:18.617Z,15.80
2022-10-16T01:27:49.907Z,12.93
2022-10-16T01:30:23.139Z,14.40
2022-10-16T01:32:54.885Z,12.57
2022-10-16T01:35:27.378Z,16.60
2022-10-16T01:38:02.512Z,29.27
2022-10-16T01:40:33.658Z,26.27
2022-10-16T01:43:07.684Z,31.97
2022-10-16T01:45:38.162Z,46.53
2022-10-16T01:48:10.526Z,40.17
2022-10-16T01:50:43.595Z,32.90
2022-10-16T01:53:15.484Z,61.40
2022-10-16T01:55:49.988Z,44.87
2022-10-16T01:58:19.442Z,39.53
2022-10-16T02:00:49.367Z,70.97
2022-10-16T02:03:20.865Z,22.27
2022-10-16T02:05:53.023Z,42.83
2022-10-16T02:08:21.450Z,72.20
2022-10-16T02:10:49.545Z,45.33
2022-10-16T02:13:25.494Z,31.70
2022-10-16T02:15:53.615Z,35.83
2022-10-16T02:18:23.423Z,45.83
2022-10-16T02:20:57.468Z,52.50
2022-10-16T02:23:35.073Z,45.87
2022-10-16T02:26:06.367Z,25.93
2022-10-16T02:28:44.142Z,56.87
2022-10-16T02:31:15.587Z,20.77
2022-10-16T02:33:46.769Z,30.20
2022-10-16T02:36:15.370Z,34.10
2022-10-16T02:38:43.792Z,30.33
2022-10-16T02:41:12.002Z,27.73
2022-10-16T02:43:41.477Z,39.27
2022-10-16T02:46:09.848Z,27.23
2022-10-16T02:48:37.974Z,33.03
2022-10-16T02:51:06.830Z,23.73
2022-10-16T02:53:34.900Z,35.13
2022-10-16T02:56:02.971Z,22.63
2022-10-16T02:58:31.152Z,58.40
2022-10-16T03:01:00.774Z,28.87
2022-10-16T03:03:28.997Z,26.67
2022-10-16T03:05:59.746Z,11.00
2022-10-16T03:08:27.939Z,19.73
2022-10-16T03:10:56.147Z,7.13
2022-10-16T03:13:24.388Z,17.80
2022-10-16T03:15:52.620Z,8.83
2022-10-16T03:18:22.027Z,24.97
2022-10-16T03:20:50.244Z,18.20
2022-10-16T03:23:18.488Z,8.10
2022-10-16T03:25:48.353Z,7.83
2022-10-16T03:28:16.658Z,13.60
2022-10-16T03:30:45.132Z,27.10
2022-10-16T03:33:13.448Z,22.53
2022-10-16T03:35:42.888Z,21.53
2022-10-16T03:38:11.021Z,37.80
2022-10-16T03:40:39.138Z,48.87
2022-10-16T03:43:07.468Z,31.67
2022-10-16T03:45:35.673Z,22.23
2022-10-16T03:48:04.349Z,31.43
2022-10-16T03:50:32.496Z,30.30
2022-10-16T03:53:02.155Z,11.90
2022-10-16T03:55:30.483Z,24.00
2022-10-16T03:57:58.639Z,16.67
2022-10-16T04:00:26.892Z,9.70
2022-10-16T04:02:55.167Z,17.83
2022-10-16T04:05:23.315Z,19.00
2022-10-16T04:07:51.337Z,17.80
2022-10-16T04:10:21.034Z,12.40
2022-10-16T04:12:49.103Z,28.70
2022-10-16T04:15:17.373Z,13.73
2022-10-16T04:17:45.467Z,8.13
2022-10-16T04:20:13.606Z,7.30
2022-10-16T04:22:41.821Z,6.33
2022-10-16T04:25:10.814Z,13.93
2022-10-16T04:27:43.568Z,7.97
2022-10-16T04:30:14.520Z,9.10
2022-10-16T04:32:43.160Z,18.63
2022-10-16T04:35:11.330Z,20.70
2022-10-16T04:37:39.516Z,12.00
2022-10-16T04:40:08.624Z,18.97
2022-10-16T04:42:37.601Z,30.77
2022-10-16T04:45:13.396Z,27.23
2022-10-16T04:47:44.676Z,62.30
2022-10-16T04:50:13.043Z,40.50
2022-10-16T04:52:41.193Z,25.00
2022-10-16T04:55:09.987Z,21.53
2022-10-16T04:57:38.172Z,17.60
2022-10-16T05:00:09.017Z,17.50
2022-10-16T05:02:37.419Z,24.87
2022-10-16T05:05:06.523Z,17.00
2022-10-16T05:07:34.732Z,17.50
2022-10-16T05:10:02.852Z,8.60
2022-10-16T05:12:30.996Z,10.63
2022-10-16T05:14:59.698Z,11.80
2022-10-16T05:17:29.625Z,7.40
2022-10-16T05:19:57.937Z,15.63
2022-10-16T05:22:26.109Z,10.03
2022-10-16T05:24:54.218Z,10.83
2022-10-16T05:27:25.118Z,15.70
2022-10-16T05:29:53.472Z,7.47
2022-10-16T05:32:21.640Z,14.60
2022-10-16T05:34:52.705Z,9.47
2022-10-16T05:37:20.833Z,7.67
2022-10-16T05:39:48.925Z,12.60
2022-10-16T05:42:17.046Z,8.33
2022-10-16T05:44:45.166Z,9.87
2022-10-16T05:47:21.881Z,9.20
2022-10-16T05:49:50.312Z,9.10
2022-10-16T05:52:18.549Z,8.40
2022-10-16T05:54:46.777Z,15.30
2022-10-16T05:57:14.935Z,10.50
2022-10-16T05:59:43.982Z,8.33
2022-10-16T06:02:14.576Z,6.63
2022-10-16T06:04:44.073Z,8.00
2022-10-16T06:07:12.231Z,15.53
2022-10-16T06:09:40.441Z,10.50
2022-10-16T06:12:08.648Z,10.10
2022-10-16T06:14:36.894Z,9.40
2022-10-16T06:17:05.082Z,9.43
2022-10-16T06:19:33.206Z,13.30
2022-10-16T06:22:03.639Z,8.70
2022-10-16T06:24:31.782Z,8.17
2022-10-16T06:26:59.952Z,8.83
2022-10-16T06:29:28.368Z,11.73
2022-10-16T06:31:56.535Z,11.50
2022-10-16T06:34:24.893Z,10.17
2022-10-16T06:36:53.006Z,11.97
2022-10-16T06:39:22.531Z,26.60
2022-10-16T06:41:50.785Z,14.60
2022-10-16T06:44:19.019Z,12.00
2022-10-16T06:46:47.163Z,13.00
2022-10-16T06:49:22.107Z,12.53
2022-10-16T06:51:50.572Z,9.37
2022-10-16T06:54:19.063Z,12.80
2022-10-16T06:56:48.802Z,15.87
2022-10-16T06:59:17.117Z,25.53
2022-10-16T07:01:45.346Z,48.40
2022-10-16T07:04:13.688Z,107.60
2022-10-16T07:06:41.842Z,210.83
2022-10-16T07:09:12.607Z,305.90
2022-10-16T07:11:42.383Z,255.60
2022-10-16T07:14:18.590Z,243.77
2022-10-16T07:16:46.891Z,200.87
2022-10-16T07:19:17.890Z,47.60
2022-10-16T07:21:46.712Z,52.03
2022-10-16T07:24:17.140Z,286.57
2022-10-16T07:26:47.095Z,781.40
2022-10-16T07:29:18.237Z,832.43
2022-10-16T07:31:47.183Z,842.77
2022-10-16T07:34:17.695Z,996.97
2022-10-16T07:36:46.977Z,999.90
2022-10-16T07:39:15.284Z,819.50
2022-10-16T07:41:43.554Z,572.07
2022-10-16T07:44:11.710Z,999.90
2022-10-16T07:46:41.280Z,915.73
2022-10-16T07:49:10.772Z,999.90
2022-10-16T07:51:40.222Z,999.90
2022-10-16T07:54:09.753Z,999.90
2022-10-16T07:56:39.981Z,999.90
2022-10-16T07:59:11.218Z,999.90
2022-10-16T08:01:40.938Z,999.90
2022-10-16T08:04:09.151Z,999.90
2022-10-16T08:06:38.620Z,999.90
2022-10-16T08:09:07.457Z,999.90
2022-10-16T08:11:35.771Z,999.90
2022-10-16T08:14:04.095Z,999.90
2022-10-16T08:16:32.269Z,999.90
2022-10-16T08:19:01.802Z,999.90
2022-10-16T08:21:30.031Z,999.90
2022-10-16T08:23:58.748Z,999.90
2022-10-16T08:26:28.354Z,999.90
2022-10-16T08:28:57.472Z,999.90
2022-10-16T08:31:27.184Z,999.90
2022-10-16T08:33:55.661Z,999.90
2022-10-16T08:36:25.333Z,999.90
2022-10-16T08:38:55.310Z,999.90
2022-10-16T08:42:06.669Z,999.90
2022-10-16T08:45:03.957Z,999.90
2022-10-16T08:47:45.229Z,999.90
2022-10-16T08:50:16.235Z,999.90
2022-10-16T08:52:46.990Z,999.90
2022-10-16T08:55:30.519Z,999.90
2022-10-16T08:57:59.118Z,999.90
2022-10-16T09:00:29.505Z,999.90
2022-10-16T09:03:06.556Z,999.90
2022-10-16T09:05:56.671Z,999.90
2022-10-16T09:08:34.961Z,999.90
2022-10-16T09:11:10.678Z,999.90
2022-10-16T09:13:48.341Z,999.90
2022-10-16T09:16:23.297Z,999.90
2022-10-16T09:18:59.077Z,999.90
2022-10-16T09:21:30.844Z,999.90
2022-10-16T09:24:06.911Z,999.90
2022-10-16T09:26:35.116Z,999.90
2022-10-16T09:29:04.701Z,999.90
2022-10-16T09:31:33.137Z,999.90
2022-10-16T09:34:05.293Z,999.90
2022-10-16T09:36:43.559Z,999.90
2022-10-16T09:39:13.865Z,999.90
2022-10-16T09:41:45.685Z,999.90
2022-10-16T09:44:24.598Z,999.90
2022-10-16T09:47:03.400Z,999.90
2022-10-16T09:49:31.538Z,999.90
2022-10-16T09:52:07.920Z,999.90
2022-10-16T09:54:37.741Z,999.90
2022-10-16T09:57:07.318Z,999.90
2022-10-16T09:59:35.805Z,999.90
2022-10-16T10:02:12.823Z,999.90
2022-10-16T10:04:46.649Z,999.90
2022-10-16T10:07:20.751Z,999.90
2022-10-16T10:09:50.458Z,999.90
2022-10-16T10:12:24.558Z,999.90
2022-10-16T10:14:58.359Z,999.90
2022-10-16T10:17:27.627Z,999.90
2022-10-16T10:19:57.732Z,999.90
2022-10-16T10:22:41.845Z,999.90
2022-10-16T10:25:21.481Z,999.90
2022-10-16T10:28:02.545Z,999.90
2022-10-16T10:30:40.431Z,999.90
2022-10-16T10:33:19.667Z,999.90
2022-10-16T10:35:58.386Z,999.90
2022-10-16T10:38:35.979Z,999.90
2022-10-16T10:41:21.959Z,999.90
2022-10-16T10:44:01.633Z,999.90
2022-10-16T10:46:36.371Z,999.90
2022-10-16T10:49:33.264Z,999.90
2022-10-16T10:52:32.285Z,999.90
2022-10-16T10:55:08.735Z,999.90
2022-10-16T10:57:48.492Z,999.90
2022-10-16T11:00:25.319Z,999.90
2022-10-16T11:03:02.253Z,999.90
2022-10-16T11:05:41.094Z,999.90
2022-10-16T11:08:15.710Z,999.90
2022-10-16T11:10:52.689Z,999.90
2022-10-16T11:13:35.065Z,999.90
2022-10-16T11:16:16.312Z,999.90
2022-10-16T11:18:54.012Z,999.90
2022-10-16T11:21:28.833Z,999.90
2022-10-16T11:24:03.882Z,999.90
2022-10-16T11:26:36.712Z,999.90
2022-10-16T11:29:12.915Z,999.90
2022-10-16T11:31:45.321Z,999.90
2022-10-16T11:34:19.797Z,999.90
2022-10-16T11:36:54.812Z,999.90
2022-10-16T11:39:28.150Z,999.90
2022-10-16T11:42:01.254Z,999.90
2022-10-16T11:44:40.935Z,999.90
2022-10-16T11:47:57.506Z,999.90
2022-10-16T11:50:26.919Z,999.90
2022-10-16T11:53:00.147Z,999.90
2022-10-16T11:55:35.067Z,999.90
2022-10-16T11:58:08.243Z,999.90
2022-10-16T12:00:42.894Z,999.90
2022-10-16T12:03:19.702Z,999.90
2022-10-16T12:06:07.943Z,999.90
2022-10-16T12:08:37.211Z,999.90
2022-10-16T12:11:10.908Z,999.90
2022-10-16T12:13:41.400Z,999.90
2022-10-16T12:16:23.663Z,999.90
2022-10-16T12:19:04.753Z,999.90
2022-10-16T12:21:33.598Z,999.90
2022-10-16T12:24:05.689Z,999.90
2022-10-16T12:26:37.047Z,999.90
2022-10-16T12:29:16.574Z,999.90
2022-10-16T12:31:57.448Z,999.90
2022-10-16T12:34:31.698Z,999.90
2022-10-16T12:37:12.407Z,999.90
2022-10-16T12:39:41.058Z,999.90
2022-10-16T12:42:24.558Z,999.90
2022-10-16T12:44:53.171Z,999.90
2022-10-16T12:47:25.879Z,999.90
2022-10-16T12:49:55.487Z,999.90
2022-10-16T12:52:30.470Z,999.90
2022-10-16T12:55:01.791Z,999.90
2022-10-16T12:57:43.332Z,999.90
2022-10-16T13:00:20.830Z,999.90
2022-10-16T13:03:12.601Z,999.90
2022-10-16T13:05:55.024Z,999.90
2022-10-16T13:08:40.769Z,999.90
2022-10-16T13:11:18.037Z,999.90
2022-10-16T13:14:17.307Z,999.90
2022-10-16T13:16:57.038Z,999.90
2022-10-16T13:19:32.570Z,999.90
2022-10-16T13:22:07.173Z,999.90
2022-10-16T13:24:56.282Z,999.90
2022-10-16T13:27:35.849Z,999.90
2022-10-16T13:30:14.112Z,999.90
2022-10-16T13:32:45.596Z,999.90
2022-10-16T13:35:27.368Z,999.90
2022-10-16T13:38:06.580Z,999.90
2022-10-16T13:40:35.680Z,999.90
2022-10-16T13:43:04.022Z,999.90
2022-10-16T13:45:32.240Z,999.90
2022-10-16T13:48:04.521Z,999.90
2022-10-16T13:50:34.360Z,999.90
2022-10-16T13:53:06.884Z,999.90
2022-10-16T13:55:35.426Z,999.90
2022-10-16T13:58:09.401Z,999.90
2022-10-16T14:03:09.188Z,999.90
2022-10-16T14:05:44.785Z,999.90
2022-10-16T14:08:16.632Z,999.90
2022-10-16T14:10:45.044Z,999.90
2022-10-16T14:13:19.376Z,999.90
2022-10-16T14:15:51.511Z,999.90
2022-10-16T14:18:23.588Z,999.90
2022-10-16T14:20:53.382Z,999.90
2022-10-16T14:23:27.277Z,999.90
2022-10-16T14:25:55.429Z,999.90
2022-10-16T14:28:25.349Z,999.90
2022-10-16T14:30:55.492Z,999.90
2022-10-16T14:33:25.781Z,999.90
2022-10-16T14:36:06.146Z,999.90
2022-10-16T14:38:55.814Z,999.90
2022-10-16T14:41:25.175Z,999.90
2022-10-16T14:43:56.220Z,999.90
2022-10-16T14:46:31.015Z,999.90
2022-10-16T14:49:04.602Z,999.90
2022-10-16T14:51:34.182Z,999.90
2022-10-16T14:54:02.741Z,999.90
2022-10-16T14:56:34.597Z,999.90
2022-10-16T14:59:04.067Z,999.90
2022-10-16T15:01:32.222Z,999.90
2022-10-16T15:04:00.531Z,999.90
2022-10-16T15:06:28.769Z,999.90
2022-10-16T15:08:58.233Z,999.90
2022-10-16T15:11:26.457Z,999.90
2022-10-16T15:13:54.639Z,999.90
2022-10-16T15:16:22.913Z,999.90
2022-10-16T15:18:51.237Z,999.90
2022-10-16T15:21:26.362Z,999.90
2022-10-16T15:23:54.896Z,999.90
2022-10-16T15:26:24.635Z,999.90
2022-10-16T15:28:53.140Z,999.90
2022-10-16T15:31:22.393Z,999.90
2022-10-16T15:33:54.554Z,999.90
2022-10-16T15:36:31.060Z,999.90
2022-10-16T15:38:59.531Z,999.90
2022-10-16T15:41:29.278Z,999.90
2022-10-16T15:43:57.419Z,999.90
2022-10-16T15:46:27.391Z,999.90
2022-10-16T15:48:59.222Z,999.90
2022-10-16T15:51:30.230Z,999.90
2022-10-16T15:53:58.924Z,999.90
2022-10-16T15:56:27.457Z,999.90
2022-10-16T15:58:58.178Z,999.90
2022-10-16T16:01:26.426Z,999.90
2022-10-16T16:03:55.477Z,999.90
2022-10-16T16:06:24.896Z,999.90
2022-10-16T16:08:53.455Z,999.90
2022-10-16T16:11:24.190Z,999.90
2022-10-16T16:13:52.454Z,999.90
2022-10-16T16:16:22.089Z,999.90
2022-10-16T16:18:50.964Z,999.90
2022-10-16T16:21:19.101Z,999.90
2022-10-16T16:23:47.316Z,999.90
2022-10-16T16:26:17.645Z,999.90
2022-10-16T16:28:45.957Z,999.90
2022-10-16T16:31:14.274Z,999.90
2022-10-16T16:33:43.839Z,999.90
2022-10-16T16:36:16.654Z,999.90
2022-10-16T16:38:44.916Z,999.90
2022-10-16T16:41:14.450Z,999.90
2022-10-16T16:43:42.755Z,999.90
2022-10-16T16:46:11.284Z,999.90
2022-10-16T16:48:39.971Z,999.90
2022-10-16T16:51:12.738Z,999.90
2022-10-16T16:53:40.920Z,999.90
2022-10-16T16:56:09.947Z,999.90
2022-10-16T16:58:38.483Z,999.90
2022-10-16T17:01:19.376Z,999.90
2022-10-16T17:03:50.967Z,999.90
2022-10-16T17:06:22.267Z,999.90
2022-10-16T17:08:51.336Z,999.90
2022-10-16T17:11:22.226Z,999.90
2022-10-16T17:13:55.530Z,999.90
2022-10-16T17:16:27.076Z,999.90
2022-10-16T17:18:55.650Z,999.90
2022-10-16T17:21:26.833Z,999.90
2022-10-16T17:23:55.010Z,999.90
2022-10-16T17:26:23.209Z,999.90
2022-10-16T17:28:53.703Z,999.90
2022-10-16T17:31:23.798Z,999.90
2022-10-16T17:33:52.676Z,999.90
2022-10-16T17:36:21.865Z,999.90
2022-10-16T17:38:51.514Z,999.90
2022-10-16T17:41:21.966Z,999.90
2022-10-16T17:43:51.371Z,999.90
2022-10-16T17:46:22.472Z,999.90
2022-10-16T17:48:54.361Z,999.90
2022-10-16T17:51:24.275Z,999.90
2022-10-16T17:53:56.082Z,999.90
2022-10-16T17:56:25.249Z,999.90
2022-10-16T17:58:56.032Z,999.90
2022-10-16T18:01:26.811Z,999.90
2022-10-16T18:03:57.716Z,999.90
2022-10-16T18:06:26.791Z,999.90
2022-10-16T18:08:58.643Z,999.90
2022-10-16T18:11:28.300Z,999.90
2022-10-16T18:13:58.991Z,999.90
2022-10-16T18:16:29.842Z,999.90
2022-10-16T18:18:58.968Z,999.90
2022-10-16T18:21:28.462Z,802.03
2022-10-16T18:24:00.102Z,839.83
2022-10-16T18:26:28.894Z,862.40
2022-10-16T18:28:58.910Z,423.10
2022-10-16T18:31:27.684Z,485.00
2022-10-16T18:33:56.341Z,670.20
2022-10-16T18:36:26.716Z,683.80
2022-10-16T18:38:55.079Z,660.43
2022-10-16T18:41:25.293Z,581.60
2022-10-16T18:43:53.849Z,693.20
2022-10-16T18:46:23.918Z,786.67
2022-10-16T18:48:56.275Z,790.93
2022-10-16T18:51:28.290Z,788.87
2022-10-16T18:53:58.437Z,956.17
2022-10-16T18:56:30.325Z,999.90
2022-10-16T18:59:00.875Z,999.90
2022-10-16T19:01:30.818Z,999.90
2022-10-16T19:04:01.137Z,999.90
2022-10-16T19:06:34.339Z,999.90
2022-10-16T19:09:02.733Z,975.47
2022-10-16T19:11:39.245Z,897.33
2022-10-16T19:14:10.091Z,862.30
2022-10-16T19:16:38.923Z,999.90
2022-10-16T19:19:09.013Z,999.90
2022-10-16T19:21:39.909Z,999.90
2022-10-16T19:24:09.741Z,999.90
2022-10-16T19:26:41.220Z,999.90
2022-10-16T19:29:11.715Z,999.90
2022-10-16T19:31:40.406Z,999.90
2022-10-16T19:34:09.791Z,992.93
2022-10-16T19:36:39.354Z,999.90
2022-10-16T19:39:09.765Z,999.90
2022-10-16T19:41:39.542Z,999.90
2022-10-16T19:44:09.794Z,999.90
2022-10-16T19:46:38.640Z,999.90
2022-10-16T19:49:09.284Z,999.90
2022-10-16T19:51:38.299Z,999.90
2022-10-16T19:54:09.569Z,999.90
2022-10-16T19:56:39.539Z,999.90
2022-10-16T19:59:09.586Z,999.90
2022-10-16T20:01:37.829Z,999.90
2022-10-16T20:04:06.674Z,999.90
2022-10-16T20:06:35.019Z,999.90
2022-10-16T20:09:03.381Z,999.90
2022-10-16T20:11:33.302Z,999.90
2022-10-16T20:14:03.966Z,999.90
2022-10-16T20:16:33.077Z,999.90
2022-10-16T20:19:02.098Z,999.90
2022-10-16T20:21:32.519Z,999.90
2022-10-16T20:24:01.777Z,999.90
2022-10-16T20:26:29.874Z,999.90
2022-10-16T20:28:58.161Z,999.90
2022-10-16T20:31:29.308Z,999.90
2022-10-16T20:33:59.214Z,999.90
2022-10-16T20:36:30.518Z,999.90
2022-10-16T20:38:58.862Z,999.90
2022-10-16T20:41:27.124Z,999.90
2022-10-16T20:43:55.742Z,999.90
2022-10-16T20:46:26.920Z,999.90
2022-10-16T20:49:06.036Z,999.90
2022-10-16T20:51:40.001Z,999.90
2022-10-16T20:54:08.480Z,999.90
2022-10-16T20:56:37.848Z,999.90
2022-10-16T20:59:07.137Z,999.90
2022-10-16T21:01:36.767Z,999.90
2022-10-16T21:04:09.472Z,999.90
2022-10-16T21:06:40.513Z,999.90
2022-10-16T21:09:09.293Z,999.90
2022-10-16T21:11:38.557Z,999.90
2022-10-16T21:14:09.256Z,999.90
2022-10-16T21:16:38.189Z,999.90
2022-10-16T21:19:07.876Z,988.37
2022-10-16T21:21:38.902Z,999.90
2022-10-16T21:24:12.091Z,999.90
2022-10-16T21:26:43.636Z,999.90
2022-10-16T21:29:12.218Z,999.90
2022-10-16T21:31:40.563Z,999.90
2022-10-16T21:34:10.110Z,999.90
2022-10-16T21:36:40.703Z,999.90
2022-10-16T21:39:11.453Z,999.90
2022-10-16T21:41:40.377Z,999.90
2022-10-16T21:44:09.318Z,999.90
2022-10-16T21:46:41.129Z,999.90
2022-10-16T21:49:12.976Z,999.90
2022-10-16T21:51:42.927Z,999.90
2022-10-16T21:54:14.298Z,999.90
2022-10-16T21:56:42.476Z,999.90
2022-10-16T21:59:12.425Z,999.90
2022-10-16T22:01:41.649Z,999.90
2022-10-16T22:04:12.536Z,999.90
2022-10-16T22:06:41.102Z,999.90
2022-10-16T22:09:12.604Z,999.90
2022-10-16T22:11:42.826Z,999.90
2022-10-16T22:14:13.808Z,999.90
2022-10-16T22:16:42.743Z,999.90
2022-10-16T22:19:13.252Z,999.90
2022-10-16T22:21:42.789Z,999.90
2022-10-16T22:24:11.480Z,999.90
2022-10-16T22:26:40.305Z,999.90
2022-10-16T22:29:09.378Z,999.90
2022-10-16T22:31:37.640Z,999.90
2022-10-16T22:34:06.462Z,935.97
2022-10-16T22:36:36.491Z,973.33
2022-10-16T22:39:05.590Z,971.30
2022-10-16T22:41:33.794Z,974.33
2022-10-16T22:44:01.991Z,998.77
2022-10-16T22:46:32.185Z,975.20
2022-10-16T22:49:00.431Z,999.90
2022-10-16T22:51:28.891Z,999.90
2022-10-16T22:53:59.423Z,999.90
2022-10-16T22:56:28.338Z,999.90
2022-10-16T22:58:56.674Z,999.90
2022-10-16T23:01:28.279Z,999.90
2022-10-16T23:03:57.195Z,988.03
2022-10-16T23:06:25.544Z,949.00
2022-10-16T23:08:54.396Z,963.40
2022-10-16T23:11:24.298Z,978.63
2022-10-16T23:13:53.330Z,990.63
2022-10-16T23:16:23.734Z,980.47
2022-10-16T23:18:52.575Z,890.47
2022-10-16T23:21:23.474Z,934.10
2022-10-16T23:23:53.087Z,736.30
2022-10-16T23:26:24.840Z,628.97
2022-10-16T23:28:53.661Z,620.60
2022-10-16T23:31:21.930Z,671.37
2022-10-16T23:33:50.150Z,757.20
2022-10-16T23:36:20.004Z,684.60
2022-10-16T23:38:49.191Z,674.70
2022-10-16T23:41:19.090Z,729.17
2022-10-16T23:43:49.076Z,758.47
2022-10-16T23:46:18.337Z,784.37
2022-10-16T23:48:46.581Z,794.57
2022-10-16T23:51:14.769Z,898.13
2022-10-16T23:53:43.263Z,844.37
2022-10-16T23:56:11.478Z,785.33
2022-10-16T23:58:39.908Z,815.17
